createdAt,value
2019-05-25T00:00:12.059Z,12.70
2019-05-25T00:01:12.036Z,12.64
2019-05-25T00:02:11.945Z,12.60
2019-05-25T00:03:12.137Z,12.56
2019-05-25T00:04:12.278Z,12.53
2019-05-25T00:05:12.009Z,12.49
2019-05-25T00:06:11.976Z,12.44
2019-05-25T00:07:12.009Z,12.40
2019-05-25T00:08:12.074Z,12.37
2019-05-25T00:09:12.006Z,12.33
2019-05-25T00:10:11.863Z,12.29
2019-05-25T00:11:11.932Z,12.24
2019-05-25T00:12:11.825Z,12.21
2019-05-25T00:13:11.792Z,12.17
2019-05-25T00:14:11.802Z,12.13
2019-05-25T00:15:11.771Z,12.10
2019-05-25T00:16:11.761Z,12.06
2019-05-25T00:17:11.752Z,12.03
2019-05-25T00:18:11.742Z,12.00
2019-05-25T00:19:11.751Z,11.96
2019-05-25T00:20:11.711Z,11.93
2019-05-25T00:21:13.868Z,11.92
2019-05-25T00:22:11.701Z,11.88
2019-05-25T00:23:11.683Z,11.85
2019-05-25T00:24:12.894Z,11.82
2019-05-25T00:25:11.653Z,11.80
2019-05-25T00:26:11.662Z,11.77
2019-05-25T00:27:11.643Z,11.74
2019-05-25T00:28:11.676Z,11.71
2019-05-25T00:29:11.641Z,11.70
2019-05-25T00:30:11.694Z,11.66
2019-05-25T00:31:13.261Z,11.65
2019-05-25T00:32:11.621Z,11.62
2019-05-25T00:33:11.730Z,11.60
2019-05-25T00:34:11.952Z,11.58
2019-05-25T00:35:11.591Z,11.57
2019-05-25T00:36:11.664Z,11.55
2019-05-25T00:37:12.490Z,11.53
2019-05-25T00:38:12.486Z,11.51
2019-05-25T00:39:11.665Z,11.49
2019-05-25T00:40:11.653Z,11.47
2019-05-25T00:41:11.527Z,11.46
2019-05-25T00:42:11.490Z,11.45
2019-05-25T00:43:11.491Z,11.44
2019-05-25T00:44:11.463Z,11.42
2019-05-25T00:45:11.454Z,11.39
2019-05-25T00:46:11.718Z,11.37
2019-05-25T00:47:11.460Z,11.35
2019-05-25T00:48:11.809Z,11.33
2019-05-25T00:49:11.878Z,11.32
2019-05-25T00:50:11.965Z,11.30
2019-05-25T00:51:11.578Z,11.29
2019-05-25T00:52:11.428Z,11.26
2019-05-25T00:53:11.445Z,11.24
2019-05-25T00:54:25.429Z,11.22
2019-05-25T00:55:12.450Z,11.21
2019-05-25T00:56:11.412Z,11.20
2019-05-25T00:57:11.363Z,11.18
2019-05-25T00:58:11.382Z,11.16
2019-05-25T00:59:11.386Z,11.14
2019-05-25T01:00:11.452Z,11.12
2019-05-25T01:01:11.376Z,11.11
2019-05-25T01:02:11.295Z,11.09
2019-05-25T01:03:11.301Z,11.07
2019-05-25T01:04:11.265Z,11.06
2019-05-25T01:05:11.257Z,11.04
2019-05-25T01:06:11.239Z,11.01
2019-05-25T01:07:11.239Z,10.99
2019-05-25T01:08:11.229Z,10.97
2019-05-25T01:09:11.208Z,10.94
2019-05-25T01:10:11.202Z,10.91
2019-05-25T01:11:11.188Z,10.89
2019-05-25T01:12:11.195Z,10.87
2019-05-25T01:13:11.239Z,10.84
2019-05-25T01:14:11.159Z,10.82
2019-05-25T01:15:11.130Z,10.79
2019-05-25T01:16:11.122Z,10.77
2019-05-25T01:17:11.113Z,10.74
2019-05-25T01:18:11.133Z,10.72
2019-05-25T01:19:11.141Z,10.69
2019-05-25T01:20:11.088Z,10.68
2019-05-25T01:21:11.317Z,10.66
2019-05-25T01:22:11.055Z,10.64
2019-05-25T01:23:11.089Z,10.61
2019-05-25T01:24:11.031Z,10.59
2019-05-25T01:25:11.071Z,10.57
2019-05-25T01:26:11.061Z,10.56
2019-05-25T01:27:11.029Z,10.52
2019-05-25T01:28:11.065Z,10.50
2019-05-25T01:29:11.020Z,10.50
2019-05-25T01:30:11.001Z,10.48
2019-05-25T01:31:10.986Z,10.44
2019-05-25T01:32:10.956Z,10.42
2019-05-25T01:33:10.988Z,10.40
2019-05-25T01:34:10.979Z,10.38
2019-05-25T01:35:10.940Z,10.36
2019-05-25T01:36:10.919Z,10.34
2019-05-25T01:37:10.904Z,10.32
2019-05-25T01:38:10.872Z,10.30
2019-05-25T01:39:10.867Z,10.27
2019-05-25T01:40:10.899Z,10.25
2019-05-25T01:41:10.850Z,10.23
2019-05-25T01:42:10.856Z,10.21
2019-05-25T01:43:10.849Z,10.17
2019-05-25T01:44:10.849Z,10.15
2019-05-25T01:45:10.818Z,10.13
2019-05-25T01:46:10.817Z,10.10
2019-05-25T01:47:10.785Z,10.07
2019-05-25T01:48:10.765Z,10.05
2019-05-25T01:49:10.770Z,10.02
2019-05-25T01:50:10.797Z,10.00
2019-05-25T01:51:10.766Z,9.96
2019-05-25T01:52:10.727Z,9.95
2019-05-25T01:53:11.697Z,9.91
2019-05-25T01:54:19.692Z,9.89
2019-05-25T01:55:11.649Z,9.89
2019-05-25T01:56:10.718Z,9.87
2019-05-25T01:57:10.841Z,9.85
2019-05-25T01:58:10.684Z,9.83
2019-05-25T01:59:11.299Z,9.81
2019-05-25T02:00:10.952Z,9.80
2019-05-25T02:01:10.781Z,9.78
2019-05-25T02:02:10.619Z,9.75
2019-05-25T02:03:10.608Z,9.74
2019-05-25T02:04:10.688Z,9.70
2019-05-25T02:05:11.280Z,9.69
2019-05-25T02:06:10.619Z,9.67
2019-05-25T02:07:10.771Z,9.65
2019-05-25T02:08:10.578Z,9.64
2019-05-25T02:09:10.580Z,9.62
2019-05-25T02:10:10.576Z,9.61
2019-05-25T02:11:10.639Z,9.59
2019-05-25T02:12:10.556Z,9.57
2019-05-25T02:13:12.808Z,9.55
2019-05-25T02:14:10.854Z,9.55
2019-05-25T02:15:10.820Z,9.53
2019-05-25T02:16:11.420Z,9.52
2019-05-25T02:17:10.831Z,9.51
2019-05-25T02:18:10.478Z,9.49
2019-05-25T02:19:10.488Z,9.48
2019-05-25T02:20:10.535Z,9.47
2019-05-25T02:21:10.975Z,9.46
2019-05-25T02:22:10.713Z,9.45
2019-05-25T02:23:10.526Z,9.43
2019-05-25T02:24:10.436Z,9.43
2019-05-25T02:25:17.742Z,9.41
2019-05-25T02:26:12.142Z,9.40
2019-05-25T02:27:10.541Z,9.38
2019-05-25T02:28:10.546Z,9.38
2019-05-25T02:29:10.629Z,9.38
2019-05-25T02:30:11.151Z,9.36
2019-05-25T02:31:10.487Z,9.35
2019-05-25T02:32:10.314Z,9.36
2019-05-25T02:33:10.302Z,9.33
2019-05-25T02:34:10.291Z,9.34
2019-05-25T02:35:10.289Z,9.32
2019-05-25T02:36:10.251Z,9.32
2019-05-25T02:37:10.272Z,9.31
2019-05-25T02:38:10.234Z,9.32
2019-05-25T02:39:10.250Z,9.31
2019-05-25T02:40:10.211Z,9.31
2019-05-25T02:41:10.373Z,9.31
2019-05-25T02:42:10.201Z,9.31
2019-05-25T02:43:10.183Z,9.30
2019-05-25T02:44:10.180Z,9.29
2019-05-25T02:45:10.182Z,9.29
2019-05-25T02:46:10.162Z,9.27
2019-05-25T02:47:10.144Z,9.26
2019-05-25T02:48:10.145Z,9.26
2019-05-25T02:49:10.137Z,9.25
2019-05-25T02:50:10.153Z,9.24
2019-05-25T02:51:10.136Z,9.23
2019-05-25T02:52:10.115Z,9.21
2019-05-25T02:53:10.102Z,9.20
2019-05-25T02:54:10.083Z,9.18
2019-05-25T02:55:10.084Z,9.17
2019-05-25T02:56:10.081Z,9.16
2019-05-25T02:57:10.040Z,9.13
2019-05-25T02:58:10.041Z,9.12
2019-05-25T02:59:10.031Z,9.11
2019-05-25T03:00:10.062Z,9.10
2019-05-25T03:01:10.043Z,9.09
2019-05-25T03:02:09.973Z,9.08
2019-05-25T03:03:09.994Z,9.08
2019-05-25T03:04:09.972Z,9.05
2019-05-25T03:05:09.945Z,9.04
2019-05-25T03:06:09.999Z,9.04
2019-05-25T03:07:09.961Z,9.02
2019-05-25T03:08:09.921Z,9.01
2019-05-25T03:09:09.919Z,9.00
2019-05-25T03:10:09.930Z,9.00
2019-05-25T03:11:09.940Z,8.99
2019-05-25T03:12:09.898Z,8.98
2019-05-25T03:13:09.870Z,8.98
2019-05-25T03:14:09.906Z,8.98
2019-05-25T03:15:09.851Z,8.98
2019-05-25T03:16:09.835Z,8.98
2019-05-25T03:17:09.828Z,8.98
2019-05-25T03:18:09.842Z,8.98
2019-05-25T03:19:09.833Z,8.98
2019-05-25T03:20:09.844Z,8.99
2019-05-25T03:21:09.786Z,8.99
2019-05-25T03:22:09.810Z,9.00
2019-05-25T03:23:09.808Z,9.00
2019-05-25T03:24:09.777Z,9.01
2019-05-25T03:25:09.737Z,9.02
2019-05-25T03:26:09.738Z,9.03
2019-05-25T03:27:09.745Z,9.04
2019-05-25T03:28:09.723Z,9.06
2019-05-25T03:29:09.704Z,9.06
2019-05-25T03:30:09.796Z,9.09
2019-05-25T03:31:09.736Z,9.09
2019-05-25T03:32:09.660Z,9.11
2019-05-25T03:33:09.668Z,9.13
2019-05-25T03:34:09.629Z,9.15
2019-05-25T03:35:09.645Z,9.15
2019-05-25T03:36:09.624Z,9.19
2019-05-25T03:37:09.716Z,9.20
2019-05-25T03:38:09.599Z,9.23
2019-05-25T03:39:09.578Z,9.25
2019-05-25T03:40:09.575Z,9.29
2019-05-25T03:41:11.446Z,9.34
2019-05-25T03:42:09.579Z,9.36
2019-05-25T03:43:09.579Z,9.39
2019-05-25T03:44:09.525Z,9.43
2019-05-25T03:45:10.686Z,9.47
2019-05-25T03:46:17.590Z,9.52
2019-05-25T03:47:09.750Z,9.55
2019-05-25T03:48:09.518Z,9.58
2019-05-25T03:49:09.507Z,9.64
2019-05-25T03:50:09.516Z,9.68
2019-05-25T03:51:09.501Z,9.73
2019-05-25T03:52:09.464Z,9.80
2019-05-25T03:53:09.439Z,9.85
2019-05-25T03:54:09.470Z,9.92
2019-05-25T03:55:09.460Z,9.99
2019-05-25T03:56:09.407Z,10.05
2019-05-25T03:57:09.407Z,10.14
2019-05-25T03:58:09.385Z,10.24
2019-05-25T03:59:09.417Z,10.32
2019-05-25T04:00:09.977Z,10.38
2019-05-25T04:01:09.516Z,10.48
2019-05-25T04:02:09.357Z,10.56
2019-05-25T04:03:09.409Z,10.63
2019-05-25T04:04:10.930Z,10.71
2019-05-25T04:05:11.661Z,10.81
2019-05-25T04:06:09.787Z,10.89
2019-05-25T04:07:09.353Z,10.98
2019-05-25T04:08:09.423Z,11.06
2019-05-25T04:09:09.669Z,11.15
2019-05-25T04:10:09.318Z,11.25
2019-05-25T04:11:09.943Z,11.32
2019-05-25T04:12:09.603Z,11.39
2019-05-25T04:13:09.236Z,11.46
2019-05-25T04:14:10.182Z,11.50
2019-05-25T04:15:09.732Z,11.55
2019-05-25T04:16:09.229Z,11.59
2019-05-25T04:17:09.283Z,11.66
2019-05-25T04:18:09.175Z,11.70
2019-05-25T04:19:09.215Z,11.75
2019-05-25T04:20:09.147Z,11.80
2019-05-25T04:21:09.183Z,11.84
2019-05-25T04:22:09.147Z,11.89
2019-05-25T04:23:09.144Z,11.93
2019-05-25T04:24:09.115Z,11.97
2019-05-25T04:25:09.221Z,12.01
2019-05-25T04:26:21.905Z,12.05
2019-05-25T04:27:10.861Z,12.09
2019-05-25T04:28:09.113Z,12.12
2019-05-25T04:29:09.680Z,12.17
2019-05-25T04:30:09.043Z,12.20
2019-05-25T04:31:09.080Z,12.24
2019-05-25T04:32:09.032Z,12.28
2019-05-25T04:33:09.011Z,12.32
2019-05-25T04:34:08.996Z,12.35
2019-05-25T04:35:09.005Z,12.37
2019-05-25T04:36:09.034Z,12.41
2019-05-25T04:37:08.955Z,12.45
2019-05-25T04:38:08.973Z,12.47
2019-05-25T04:39:08.930Z,12.52
2019-05-25T04:40:08.960Z,12.55
2019-05-25T04:41:08.961Z,12.58
2019-05-25T04:42:08.946Z,12.60
2019-05-25T04:43:08.904Z,12.64
2019-05-25T04:44:08.903Z,12.67
2019-05-25T04:45:08.899Z,12.70
2019-05-25T04:46:08.920Z,12.73
2019-05-25T04:47:08.912Z,12.75
2019-05-25T04:48:08.904Z,12.78
2019-05-25T04:49:08.913Z,12.81
2019-05-25T04:50:08.850Z,12.84
2019-05-25T04:51:08.836Z,12.86
2019-05-25T04:52:08.808Z,12.89
2019-05-25T04:53:08.830Z,12.92
2019-05-25T04:54:08.793Z,12.96
2019-05-25T04:55:08.817Z,13.01
2019-05-25T04:56:08.776Z,13.09
2019-05-25T04:57:08.890Z,13.15
2019-05-25T04:58:09.342Z,13.21
2019-05-25T04:59:08.731Z,13.26
2019-05-25T05:00:08.712Z,13.29
2019-05-25T05:01:08.708Z,13.32
2019-05-25T05:02:08.743Z,13.39
2019-05-25T05:03:08.710Z,13.44
2019-05-25T05:04:08.734Z,13.52
2019-05-25T05:05:08.696Z,13.56
2019-05-25T05:06:08.665Z,13.59
2019-05-25T05:07:08.640Z,13.59
2019-05-25T05:08:08.641Z,13.62
2019-05-25T05:09:08.629Z,13.64
2019-05-25T05:10:08.628Z,13.69
2019-05-25T05:11:08.589Z,13.74
2019-05-25T05:12:08.597Z,13.80
2019-05-25T05:13:08.583Z,13.83
2019-05-25T05:14:08.572Z,13.84
2019-05-25T05:15:08.567Z,13.85
2019-05-25T05:16:08.552Z,13.84
2019-05-25T05:17:08.563Z,13.84
2019-05-25T05:18:08.539Z,13.84
2019-05-25T05:19:08.537Z,13.86
2019-05-25T05:20:08.555Z,13.88
2019-05-25T05:21:08.507Z,13.90
2019-05-25T05:22:08.511Z,13.93
2019-05-25T05:23:08.500Z,13.95
2019-05-25T05:24:08.474Z,13.97
2019-05-25T05:25:09.492Z,14.00
2019-05-25T05:26:08.461Z,14.04
2019-05-25T05:27:08.510Z,14.05
2019-05-25T05:28:08.432Z,14.08
2019-05-25T05:29:08.400Z,14.08
2019-05-25T05:30:08.450Z,14.10
2019-05-25T05:31:22.674Z,14.11
2019-05-25T05:32:09.454Z,14.15
2019-05-25T05:33:08.433Z,14.22
2019-05-25T05:34:08.424Z,14.32
2019-05-25T05:35:08.470Z,14.43
2019-05-25T05:36:08.417Z,14.53
2019-05-25T05:37:08.383Z,14.59
2019-05-25T05:38:08.379Z,14.66
2019-05-25T05:39:08.297Z,14.71
2019-05-25T05:40:08.351Z,14.73
2019-05-25T05:41:08.315Z,14.72
2019-05-25T05:42:08.329Z,14.67
2019-05-25T05:43:08.266Z,14.64
2019-05-25T05:44:08.322Z,14.57
2019-05-25T05:45:08.294Z,14.53
2019-05-25T05:46:08.269Z,14.48
2019-05-25T05:47:10.472Z,14.46
2019-05-25T05:48:08.260Z,14.44
2019-05-25T05:49:08.268Z,14.45
2019-05-25T05:50:08.252Z,14.46
2019-05-25T05:51:08.222Z,14.47
2019-05-25T05:52:08.278Z,14.49
2019-05-25T05:53:08.241Z,14.51
2019-05-25T05:54:08.246Z,14.53
2019-05-25T05:55:08.148Z,14.53
2019-05-25T05:56:08.119Z,14.53
2019-05-25T05:57:12.241Z,14.52
2019-05-25T05:58:08.113Z,14.51
2019-05-25T05:59:08.107Z,14.50
2019-05-25T06:00:09.537Z,14.52
2019-05-25T06:01:08.115Z,14.54
2019-05-25T06:02:08.167Z,14.59
2019-05-25T06:03:16.590Z,14.65
2019-05-25T06:04:10.644Z,14.68
2019-05-25T06:05:16.619Z,14.71
2019-05-25T06:06:11.486Z,14.72
2019-05-25T06:07:11.088Z,14.75
2019-05-25T06:08:09.543Z,14.80
2019-05-25T06:09:08.372Z,14.88
2019-05-25T06:10:08.932Z,14.94
2019-05-25T06:11:07.955Z,14.99
2019-05-25T06:12:08.860Z,15.01
2019-05-25T06:13:07.958Z,15.02
2019-05-25T06:14:07.948Z,15.04
2019-05-25T06:15:07.947Z,15.07
2019-05-25T06:16:10.894Z,15.13
2019-05-25T06:17:07.990Z,15.24
2019-05-25T06:18:07.885Z,15.30
2019-05-25T06:19:07.906Z,15.36
2019-05-25T06:20:10.583Z,15.40
2019-05-25T06:21:09.868Z,15.45
2019-05-25T06:22:07.948Z,15.50
2019-05-25T06:23:12.191Z,15.55
2019-05-25T06:24:07.865Z,15.60
2019-05-25T06:25:07.855Z,15.64
2019-05-25T06:26:07.824Z,15.67
2019-05-25T06:27:07.796Z,15.70
2019-05-25T06:28:07.756Z,15.72
2019-05-25T06:29:07.805Z,15.73
2019-05-25T06:30:07.766Z,15.72
2019-05-25T06:31:08.820Z,15.72
2019-05-25T06:32:07.745Z,15.70
2019-05-25T06:33:07.757Z,15.69
2019-05-25T06:34:08.210Z,15.67
2019-05-25T06:35:13.123Z,15.68
2019-05-25T06:36:08.702Z,15.70
2019-05-25T06:37:07.681Z,15.73
2019-05-25T06:38:07.787Z,15.76
2019-05-25T06:39:07.687Z,15.77
2019-05-25T06:40:07.745Z,15.78
2019-05-25T06:41:08.785Z,15.81
2019-05-25T06:42:07.654Z,15.86
2019-05-25T06:43:07.739Z,15.90
2019-05-25T06:44:07.638Z,15.91
2019-05-25T06:45:07.594Z,15.90
2019-05-25T06:46:07.621Z,15.91
2019-05-25T06:47:07.551Z,15.94
2019-05-25T06:48:07.596Z,16.00
2019-05-25T06:49:11.240Z,16.06
2019-05-25T06:50:19.664Z,16.11
2019-05-25T06:51:07.600Z,16.12
2019-05-25T06:52:07.548Z,16.14
2019-05-25T06:53:07.529Z,16.16
2019-05-25T06:54:07.482Z,16.22
2019-05-25T06:55:07.514Z,16.27
2019-05-25T06:56:07.497Z,16.30
2019-05-25T06:57:07.483Z,16.31
2019-05-25T06:58:07.472Z,16.28
2019-05-25T06:59:07.482Z,16.24
2019-05-25T07:00:07.466Z,16.19
2019-05-25T07:01:07.465Z,16.13
2019-05-25T07:02:07.884Z,16.06
2019-05-25T07:03:07.410Z,16.02
2019-05-25T07:04:11.171Z,16.01
2019-05-25T07:05:08.047Z,16.02
2019-05-25T07:06:07.387Z,16.01
2019-05-25T07:07:07.334Z,16.00
2019-05-25T07:08:10.182Z,15.96
2019-05-25T07:09:07.327Z,15.92
2019-05-25T07:10:07.359Z,15.88
2019-05-25T07:11:07.316Z,15.85
2019-05-25T07:12:07.328Z,15.85
2019-05-25T07:13:07.275Z,15.89
2019-05-25T07:14:07.275Z,15.96
2019-05-25T07:15:07.311Z,16.05
2019-05-25T07:16:07.263Z,16.12
2019-05-25T07:17:07.257Z,16.23
2019-05-25T07:18:07.264Z,16.33
2019-05-25T07:19:07.212Z,16.45
2019-05-25T07:20:07.245Z,16.56
2019-05-25T07:21:07.223Z,16.69
2019-05-25T07:22:07.202Z,16.79
2019-05-25T07:23:07.210Z,16.93
2019-05-25T07:24:07.163Z,17.06
2019-05-25T07:25:07.168Z,17.25
2019-05-25T07:26:07.194Z,17.47
2019-05-25T07:27:07.123Z,17.76
2019-05-25T07:28:07.121Z,18.14
2019-05-25T07:29:07.121Z,18.61
2019-05-25T07:30:07.410Z,19.04
2019-05-25T07:31:07.094Z,19.43
2019-05-25T07:32:07.114Z,19.74
2019-05-25T07:33:07.093Z,19.96
2019-05-25T07:34:07.074Z,20.11
2019-05-25T07:35:07.052Z,20.29
2019-05-25T07:36:07.784Z,20.49
2019-05-25T07:37:07.043Z,20.69
2019-05-25T07:38:07.024Z,20.91
2019-05-25T07:39:07.009Z,21.14
2019-05-25T07:40:06.997Z,21.35
2019-05-25T07:41:07.042Z,21.53
2019-05-25T07:42:07.005Z,21.68
2019-05-25T07:43:06.958Z,21.84
2019-05-25T07:44:06.949Z,21.95
2019-05-25T07:45:06.984Z,21.99
2019-05-25T07:46:07.030Z,22.08
2019-05-25T07:47:06.919Z,22.24
2019-05-25T07:48:06.898Z,22.41
2019-05-25T07:49:07.002Z,22.55
2019-05-25T07:50:06.884Z,22.73
2019-05-25T07:51:06.843Z,22.92
2019-05-25T07:52:06.896Z,23.12
2019-05-25T07:53:06.845Z,23.38
2019-05-25T07:54:06.839Z,23.64
2019-05-25T07:55:06.834Z,23.82
2019-05-25T07:56:06.836Z,23.97
2019-05-25T07:57:06.793Z,24.09
2019-05-25T07:58:16.907Z,24.26
2019-05-25T07:59:07.790Z,24.48
2019-05-25T08:00:06.765Z,24.70
2019-05-25T08:01:06.764Z,24.91
2019-05-25T08:02:06.973Z,25.07
2019-05-25T08:03:06.742Z,25.18
2019-05-25T08:04:06.724Z,25.28
2019-05-25T08:05:06.726Z,25.37
2019-05-25T08:06:06.685Z,25.50
2019-05-25T08:07:06.724Z,25.67
2019-05-25T08:08:06.722Z,25.82
2019-05-25T08:09:06.682Z,25.99
2019-05-25T08:10:06.674Z,26.15
2019-05-25T08:11:06.651Z,26.35
2019-05-25T08:12:06.633Z,26.63
2019-05-25T08:13:06.649Z,26.96
2019-05-25T08:14:06.601Z,27.19
2019-05-25T08:15:06.641Z,27.71
2019-05-25T08:16:06.594Z,27.67
2019-05-25T08:17:06.614Z,27.70
2019-05-25T08:18:12.393Z,28.35
2019-05-25T08:19:06.992Z,30.80
2019-05-25T08:20:10.078Z,29.84
2019-05-25T08:21:08.567Z,29.49
2019-05-25T08:22:06.548Z,30.42
2019-05-25T08:23:06.583Z,30.96
2019-05-25T08:24:06.513Z,30.19
2019-05-25T08:25:06.508Z,34.39
2019-05-25T08:26:06.493Z,33.82
2019-05-25T08:27:07.883Z,33.39
2019-05-25T08:28:06.476Z,33.93
2019-05-25T08:29:06.457Z,32.29
2019-05-25T08:30:06.557Z,31.15
2019-05-25T08:31:06.792Z,30.32
2019-05-25T08:32:06.864Z,29.80
2019-05-25T08:33:06.536Z,33.76
2019-05-25T08:34:08.499Z,32.46
2019-05-25T08:35:09.566Z,32.74
2019-05-25T08:36:07.390Z,31.20
2019-05-25T08:37:06.926Z,30.17
2019-05-25T08:38:07.504Z,29.46
2019-05-25T08:39:15.140Z,32.09
2019-05-25T08:40:07.340Z,34.84
2019-05-25T08:41:09.613Z,32.69
2019-05-25T08:42:19.689Z,34.15
2019-05-25T08:43:11.778Z,32.60
2019-05-25T08:44:06.495Z,34.17
2019-05-25T08:45:07.248Z,32.54
2019-05-25T08:46:06.712Z,30.98
2019-05-25T08:47:07.382Z,30.35
2019-05-25T08:48:08.126Z,29.64
2019-05-25T08:49:06.429Z,29.52
2019-05-25T08:50:06.415Z,29.16
2019-05-25T08:51:06.426Z,30.14
2019-05-25T08:52:06.742Z,30.01
2019-05-25T08:53:06.802Z,29.49
2019-05-25T08:54:06.233Z,28.80
2019-05-25T08:55:07.069Z,28.21
2019-05-25T08:56:10.175Z,27.84
2019-05-25T08:57:06.344Z,32.47
2019-05-25T08:58:06.560Z,37.17
2019-05-25T08:59:06.151Z,40.57
2019-05-25T09:00:06.163Z,43.26
2019-05-25T09:01:06.132Z,44.60
2019-05-25T09:02:06.133Z,42.16
2019-05-25T09:03:06.280Z,43.97
2019-05-25T09:04:06.870Z,46.42
2019-05-25T09:05:06.469Z,48.22
2019-05-25T09:06:07.343Z,49.52
2019-05-25T09:07:08.367Z,50.73
2019-05-25T09:08:07.722Z,52.13
2019-05-25T09:09:06.133Z,53.46
2019-05-25T09:10:06.262Z,54.64
2019-05-25T09:11:07.634Z,55.50
2019-05-25T09:12:06.992Z,54.90
2019-05-25T09:13:06.057Z,50.28
2019-05-25T09:14:06.032Z,48.14
2019-05-25T09:15:06.469Z,45.55
2019-05-25T09:16:05.971Z,42.63
2019-05-25T09:17:06.196Z,40.48
2019-05-25T09:18:06.935Z,38.81
2019-05-25T09:19:06.183Z,37.78
2019-05-25T09:20:06.441Z,39.48
2019-05-25T09:21:06.932Z,38.42
2019-05-25T09:22:06.107Z,39.00
2019-05-25T09:23:05.949Z,41.50
2019-05-25T09:24:06.162Z,41.40
2019-05-25T09:25:07.002Z,43.07
2019-05-25T09:26:06.086Z,46.34
2019-05-25T09:27:06.100Z,44.27
2019-05-25T09:28:06.070Z,44.70
2019-05-25T09:29:06.378Z,48.63
2019-05-25T09:30:05.936Z,49.17
2019-05-25T09:31:06.754Z,45.26
2019-05-25T09:32:07.165Z,42.33
2019-05-25T09:33:06.520Z,44.03
2019-05-25T09:34:07.820Z,48.07
2019-05-25T09:35:08.535Z,50.71
2019-05-25T09:36:07.221Z,52.15
2019-05-25T09:37:05.927Z,47.66
2019-05-25T09:38:05.997Z,43.92
2019-05-25T09:39:05.940Z,40.96
2019-05-25T09:40:06.069Z,38.88
2019-05-25T09:41:06.526Z,37.46
2019-05-25T09:42:05.833Z,36.68
2019-05-25T09:43:05.914Z,35.92
2019-05-25T09:44:05.991Z,35.23
2019-05-25T09:45:05.854Z,34.73
2019-05-25T09:46:06.034Z,33.61
2019-05-25T09:47:05.893Z,33.07
2019-05-25T09:48:06.378Z,37.05
2019-05-25T09:49:05.872Z,41.33
2019-05-25T09:50:06.450Z,45.05
2019-05-25T09:51:15.094Z,47.83
2019-05-25T09:52:07.438Z,50.11
2019-05-25T09:53:05.621Z,49.91
2019-05-25T09:54:05.563Z,50.01
2019-05-25T09:55:05.620Z,47.27
2019-05-25T09:56:05.573Z,47.41
2019-05-25T09:57:05.730Z,50.39
2019-05-25T09:58:05.512Z,50.39
2019-05-25T09:59:19.250Z,52.49
2019-05-25T10:00:06.592Z,53.82
2019-05-25T10:01:05.520Z,54.73
2019-05-25T10:02:05.547Z,55.64
2019-05-25T10:03:05.532Z,56.43
2019-05-25T10:04:05.443Z,57.08
2019-05-25T10:05:05.574Z,57.61
2019-05-25T10:06:12.403Z,58.02
2019-05-25T10:07:06.559Z,58.40
2019-05-25T10:08:05.493Z,58.69
2019-05-25T10:09:05.493Z,59.00
2019-05-25T10:10:05.476Z,59.28
2019-05-25T10:11:05.561Z,59.40
2019-05-25T10:12:05.389Z,59.35
2019-05-25T10:13:05.428Z,59.26
2019-05-25T10:14:05.954Z,59.00
2019-05-25T10:15:06.148Z,58.32
2019-05-25T10:16:05.476Z,55.76
2019-05-25T10:17:05.346Z,51.95
2019-05-25T10:18:05.296Z,48.78
2019-05-25T10:19:05.334Z,46.35
2019-05-25T10:20:05.397Z,44.51
2019-05-25T10:21:05.275Z,42.89
2019-05-25T10:22:08.219Z,41.80
2019-05-25T10:23:05.292Z,40.58
2019-05-25T10:24:05.275Z,39.60
2019-05-25T10:25:05.295Z,38.78
2019-05-25T10:26:05.249Z,38.04
2019-05-25T10:27:05.243Z,37.36
2019-05-25T10:28:05.272Z,36.69
2019-05-25T10:29:05.211Z,36.05
2019-05-25T10:30:05.169Z,35.51
2019-05-25T10:31:05.184Z,35.21
2019-05-25T10:32:05.148Z,35.04
2019-05-25T10:33:05.149Z,34.93
2019-05-25T10:34:05.158Z,34.89
2019-05-25T10:35:05.129Z,34.83
2019-05-25T10:36:05.108Z,34.75
2019-05-25T10:37:05.128Z,34.66
2019-05-25T10:38:05.130Z,34.65
2019-05-25T10:39:05.098Z,34.81
2019-05-25T10:40:05.111Z,34.99
2019-05-25T10:41:05.071Z,35.18
2019-05-25T10:42:05.057Z,35.54
2019-05-25T10:43:05.104Z,35.39
2019-05-25T10:44:05.087Z,35.19
2019-05-25T10:45:05.035Z,35.35
2019-05-25T10:46:05.023Z,35.79
2019-05-25T10:47:04.998Z,36.51
2019-05-25T10:48:05.007Z,37.21
2019-05-25T10:49:05.023Z,38.08
2019-05-25T10:50:04.955Z,39.08
2019-05-25T10:51:04.981Z,38.65
2019-05-25T10:52:04.944Z,37.77
2019-05-25T10:53:04.933Z,37.01
2019-05-25T10:54:04.921Z,36.29
2019-05-25T10:55:04.938Z,35.58
2019-05-25T10:56:04.950Z,35.00
2019-05-25T10:57:04.909Z,36.24
2019-05-25T10:58:04.894Z,35.26
2019-05-25T10:59:04.870Z,34.85
2019-05-25T11:00:04.892Z,36.82
2019-05-25T11:01:04.888Z,39.19
2019-05-25T11:02:04.840Z,37.22
2019-05-25T11:03:04.837Z,35.81
2019-05-25T11:04:04.842Z,34.85
2019-05-25T11:05:04.812Z,34.17
2019-05-25T11:06:04.840Z,33.62
2019-05-25T11:07:04.789Z,33.22
2019-05-25T11:08:04.780Z,32.89
2019-05-25T11:09:04.800Z,32.46
2019-05-25T11:10:04.826Z,32.09
2019-05-25T11:11:04.790Z,31.83
2019-05-25T11:12:04.752Z,31.88
2019-05-25T11:13:04.749Z,32.53
2019-05-25T11:14:04.709Z,35.75
2019-05-25T11:15:04.827Z,34.77
2019-05-25T11:16:04.768Z,34.67
2019-05-25T11:17:04.707Z,33.48
2019-05-25T11:18:04.694Z,33.66
2019-05-25T11:19:04.672Z,38.51
2019-05-25T11:20:04.662Z,42.06
2019-05-25T11:21:04.670Z,45.05
2019-05-25T11:22:05.274Z,46.46
2019-05-25T11:23:04.622Z,48.29
2019-05-25T11:24:04.602Z,50.39
2019-05-25T11:25:04.634Z,52.37
2019-05-25T11:26:04.652Z,53.41
2019-05-25T11:27:04.632Z,49.55
2019-05-25T11:28:08.164Z,46.42
2019-05-25T11:29:04.574Z,46.36
2019-05-25T11:30:09.414Z,51.21
2019-05-25T11:31:04.696Z,53.27
2019-05-25T11:32:07.089Z,50.46
2019-05-25T11:33:05.400Z,47.68
2019-05-25T11:34:04.993Z,45.20
2019-05-25T11:35:04.518Z,43.35
2019-05-25T11:36:04.496Z,41.92
2019-05-25T11:37:04.524Z,40.80
2019-05-25T11:38:04.681Z,39.95
2019-05-25T11:39:04.809Z,39.20
2019-05-25T11:40:05.441Z,38.67
2019-05-25T11:41:04.433Z,38.13
2019-05-25T11:42:04.426Z,37.80
2019-05-25T11:43:04.488Z,37.58
2019-05-25T11:44:04.444Z,37.54
2019-05-25T11:45:04.445Z,40.13
2019-05-25T11:46:04.537Z,39.98
2019-05-25T11:47:04.416Z,39.63
2019-05-25T11:48:04.385Z,39.85
2019-05-25T11:49:20.011Z,39.11
2019-05-25T11:50:05.357Z,38.39
2019-05-25T11:51:04.312Z,37.84
2019-05-25T11:52:04.304Z,37.38
2019-05-25T11:53:05.918Z,37.00
2019-05-25T11:54:04.284Z,36.68
2019-05-25T11:55:04.313Z,36.35
2019-05-25T11:56:04.268Z,36.09
2019-05-25T11:57:04.257Z,37.48
2019-05-25T11:58:04.254Z,40.93
2019-05-25T11:59:04.246Z,39.91
2019-05-25T12:00:04.235Z,40.05
2019-05-25T12:01:04.289Z,41.24
2019-05-25T12:02:04.235Z,46.19
2019-05-25T12:03:04.207Z,47.33
2019-05-25T12:04:04.206Z,51.45
2019-05-25T12:05:04.168Z,52.51
2019-05-25T12:06:04.154Z,49.19
2019-05-25T12:07:04.199Z,46.27
2019-05-25T12:08:04.189Z,43.96
2019-05-25T12:09:04.131Z,42.24
2019-05-25T12:10:04.161Z,41.67
2019-05-25T12:11:04.133Z,48.12
2019-05-25T12:12:04.135Z,52.11
2019-05-25T12:13:04.173Z,54.90
2019-05-25T12:14:04.106Z,56.96
2019-05-25T12:15:04.107Z,58.08
2019-05-25T12:16:04.087Z,52.62
2019-05-25T12:17:04.101Z,49.06
2019-05-25T12:18:04.108Z,47.22
2019-05-25T12:19:04.035Z,51.72
2019-05-25T12:20:04.158Z,54.33
2019-05-25T12:21:04.017Z,54.24
2019-05-25T12:22:04.016Z,50.53
2019-05-25T12:23:04.370Z,51.09
2019-05-25T12:24:03.999Z,52.87
2019-05-25T12:25:04.005Z,55.63
2019-05-25T12:26:04.032Z,57.42
2019-05-25T12:27:04.029Z,57.60
2019-05-25T12:28:03.976Z,52.38
2019-05-25T12:29:03.974Z,49.08
2019-05-25T12:30:04.000Z,46.55
2019-05-25T12:31:03.948Z,45.16
2019-05-25T12:32:04.614Z,43.34
2019-05-25T12:33:03.916Z,41.95
2019-05-25T12:34:03.963Z,40.83
2019-05-25T12:35:03.882Z,39.94
2019-05-25T12:36:03.941Z,42.02
2019-05-25T12:37:03.902Z,42.20
2019-05-25T12:38:03.830Z,45.88
2019-05-25T12:39:03.847Z,49.98
2019-05-25T12:40:03.848Z,52.76
2019-05-25T12:41:03.857Z,55.15
2019-05-25T12:42:03.920Z,56.22
2019-05-25T12:43:03.860Z,51.65
2019-05-25T12:44:03.806Z,48.34
2019-05-25T12:45:03.854Z,45.81
2019-05-25T12:46:03.824Z,43.78
2019-05-25T12:47:03.783Z,42.19
2019-05-25T12:48:03.762Z,44.24
2019-05-25T12:49:03.814Z,48.46
2019-05-25T12:50:03.738Z,49.60
2019-05-25T12:51:03.734Z,47.49
2019-05-25T12:52:03.704Z,50.14
2019-05-25T12:53:03.783Z,52.43
2019-05-25T12:54:03.719Z,52.32
2019-05-25T12:55:03.721Z,54.30
2019-05-25T12:56:03.656Z,55.91